Time;durP1;ratioP1;P1;durP2;ratioP2;P2;SDS_P1;SDS_P2;PMS_P1;PMS_P2;Temp;Humidity;BMP_temperature;BMP_pressure;BME280_temperature;BME280_humidity;BME280_pressure;Samples;Min_cycle;Max_cycle;Signal;HPM_P1;HPM_P2
2021/03/14 05:00:36;;;;;;;1.85;1.85;;;5.10;99.90;;;;;;6095766;23;21482;31
2021/03/14 05:03:01;;;;;;;;;;;5.10;99.90;;;;;;4977129;28;20047;-83
2021/03/14 05:05:27;;;;;;;1.90;1.80;;;5.20;99.90;;;;;;5013127;28;19929;-84
2021/03/14 05:07:54;;;;;;;1.85;1.85;;;5.20;99.90;;;;;;5005083;28;20031;-85
2021/03/14 05:10:22;;;;;;;1.73;1.73;;;5.20;99.90;;;;;;4992647;28;20859;-84
2021/03/14 05:12:49;;;;;;;1.48;1.48;;;5.20;99.90;;;;;;4992371;28;20091;-83
2021/03/14 05:15:17;;;;;;;1.90;1.80;;;5.10;99.90;;;;;;4991735;28;20058;-83
2021/03/14 05:17:44;;;;;;;1.70;1.67;;;5.10;99.90;;;;;;4992249;28;20043;-83
2021/03/14 05:20:16;;;;;;;1.67;1.67;;;5.00;99.90;;;;;;4990848;28;20506;-83
2021/03/14 05:22:43;;;;;;;1.80;1.70;;;5.00;99.90;;;;;;4990547;28;20634;-82
2021/03/14 05:25:10;;;;;;;1.40;1.40;;;4.90;99.90;;;;;;4991655;28;20483;-83
2021/03/14 05:27:36;;;;;;;1.80;1.80;;;4.90;99.90;;;;;;4990428;28;20058;-82
2021/03/14 05:30:06;;;;;;;1.70;1.60;;;4.90;99.90;;;;;;4991248;28;20549;-82
2021/03/14 05:32:32;;;;;;;1.65;1.65;;;4.90;99.90;;;;;;4991139;28;20047;-84
2021/03/14 05:34:58;;;;;;;1.98;1.88;;;4.90;99.90;;;;;;4976688;28;20050;-84
2021/03/14 05:37:24;;;;;;;2.15;1.80;;;4.70;99.90;;;;;;4996053;28;20053;-83
2021/03/14 05:39:51;;;;;;;1.80;1.70;;;4.80;99.90;;;;;;4996128;28;20082;-84
2021/03/14 05:42:17;;;;;;;1.88;1.77;;;4.70;99.90;;;;;;4996525;28;20049;-86
2021/03/14 05:44:46;;;;;;;1.77;1.77;;;4.60;99.90;;;;;;4992118;28;20910;-82
2021/03/14 05:47:12;;;;;;;2.03;1.92;;;4.50;99.90;;;;;;4992346;28;20047;-84
2021/03/14 05:49:37;;;;;;;1.85;1.75;;;4.50;99.90;;;;;;4991320;28;20086;-84
2021/03/14 05:52:06;;;;;;;2.17;2.05;;;4.50;99.90;;;;;;4992381;28;20051;-85
2021/03/14 05:54:34;;;;;;;2.10;2.00;;;4.40;99.90;;;;;;4992615;28;20043;-84
2021/03/14 05:57:02;;;;;;;2.50;2.30;;;4.40;99.90;;;;;;4993089;28;20832;-82
2021/03/14 05:59:29;;;;;;;1.88;1.77;;;4.50;99.90;;;;;;5001999;28;20035;-84
2021/03/14 06:01:57;;;;;;;1.83;1.83;;;4.50;99.90;;;;;;4992159;28;20087;-83
2021/03/14 06:04:23;;;;;;;2.10;2.00;;;4.40;99.70;;;;;;5000201;28;20055;-84
2021/03/14 06:06:49;;;;;;;2.53;1.98;;;4.30;99.90;;;;;;4992289;28;20114;-83
2021/03/14 06:09:16;;;;;;;4.15;2.53;;;4.30;99.90;;;;;;5001975;28;20455;-83
2021/03/14 06:11:42;;;;;;;1.90;1.85;;;4.40;99.50;;;;;;4992901;28;20043;-84
2021/03/14 06:14:08;;;;;;;1.80;1.80;;;4.40;98.80;;;;;;4996205;28;20047;-84
2021/03/14 06:16:34;;;;;;;2.20;2.10;;;4.40;98.50;;;;;;4993498;28;20098;-85
2021/03/14 06:19:00;;;;;;;3.15;1.92;;;4.40;97.30;;;;;;4993998;28;20054;-84
2021/03/14 06:21:31;;;;;;;2.17;2.08;;;4.40;99.90;;;;;;4997121;28;20043;-81
2021/03/14 06:24:06;;;;;;;1.60;1.60;;;4.20;99.90;;;;;;5000355;28;20027;-84
2021/03/14 06:26:34;;;;;;;2.20;2.10;;;4.20;99.90;;;;;;4995923;28;20107;-80
2021/03/14 06:29:21;;;;;;;2.42;2.33;;;4.20;99.90;;;;;;5000164;28;20050;-84
2021/03/14 06:31:52;;;;;;;2.10;2.00;;;4.40;99.90;;;;;;4997211;28;20116;-83
2021/03/14 06:34:39;;;;;;;2.50;2.30;;;4.40;99.90;;;;;;4997144;28;20079;-83
2021/03/14 06:37:07;;;;;;;2.30;2.20;;;4.50;99.90;;;;;;4981264;28;20050;-85
2021/03/14 06:39:36;;;;;;;1.92;1.83;;;4.50;99.90;;;;;;4995051;28;20047;-85
2021/03/14 06:42:02;;;;;;;1.92;1.83;;;4.60;99.90;;;;;;4990724;28;20035;-85
2021/03/14 06:44:33;;;;;;;1.75;1.65;;;4.60;99.90;;;;;;5000840;28;20047;-84
2021/03/14 06:47:00;;;;;;;2.35;2.05;;;4.70;99.90;;;;;;4992260;28;20133;-82
2021/03/14 06:49:28;;;;;;;1.92;1.83;;;4.80;99.90;;;;;;4994693;28;20047;-83
2021/03/14 06:51:58;;;;;;;2.22;2.13;;;4.90;99.90;;;;;;4991511;28;20043;-84
2021/03/14 06:54:33;;;;;;;2.05;1.95;;;5.00;99.90;;;;;;4990929;28;20039;-84
2021/03/14 06:57:09;;;;;;;2.15;1.95;;;5.10;98.50;;;;;;4993510;28;20941;-84
2021/03/14 06:59:39;;;;;;;2.97;2.78;;;5.10;98.80;;;;;;4983774;28;20043;-84
2021/03/14 07:02:09;;;;;;;3.55;2.22;;;5.20;98.70;;;;;;5002770;28;20074;-82
2021/03/14 07:04:47;;;;;;;1.98;1.88;;;5.40;98.50;;;;;;5011430;28;20039;-84
2021/03/14 07:07:27;;;;;;;2.85;2.22;;;5.40;97.70;;;;;;5013240;28;20039;-82
2021/03/14 07:09:56;;;;;;;1.88;1.77;;;5.40;97.00;;;;;;4999523;28;20093;-84
2021/03/14 07:12:31;;;;;;;2.45;2.08;;;5.30;97.20;;;;;;5003547;28;20050;-84
2021/03/14 07:15:12;;;;;;;2.85;1.95;;;5.40;97.70;;;;;;5007323;28;20034;-83
2021/03/14 07:17:40;;;;;;;2.22;1.98;;;5.60;97.50;;;;;;5008360;28;20074;-83
2021/03/14 07:20:08;;;;;;;2.10;2.00;;;5.70;97.20;;;;;;5008819;28;20054;-84
2021/03/14 07:22:35;;;;;;;3.28;2.95;;;5.70;97.00;;;;;;5003847;28;20036;-84
2021/03/14 07:25:00;;;;;;;4.15;2.38;;;5.60;96.90;;;;;;5008550;28;20049;-84
2021/03/14 07:27:31;;;;;;;2.55;2.42;;;5.70;98.10;;;;;;5008248;28;20078;-83
2021/03/14 07:29:59;;;;;;;2.75;2.55;;;5.70;98.20;;;;;;5009703;28;20030;-83
2021/03/14 07:32:26;;;;;;;2.17;2.08;;;5.80;99.00;;;;;;5010404;28;20162;-81
2021/03/14 07:34:52;;;;;;;3.03;2.78;;;5.80;98.50;;;;;;5011674;28;20043;-84
2021/03/14 07:37:19;;;;;;;2.28;2.00;;;5.80;98.90;;;;;;5009256;28;20814;-84
2021/03/14 07:39:48;;;;;;;2.78;2.58;;;5.80;99.00;;;;;;5004898;28;20051;-84
2021/03/14 07:42:18;;;;;;;2.83;2.05;;;5.90;98.70;;;;;;5009227;28;20118;-83
2021/03/14 07:44:45;;;;;;;2.20;2.10;;;6.00;98.40;;;;;;5010808;28;20050;-84
2021/03/14 07:47:14;;;;;;;3.92;2.38;;;5.90;98.20;;;;;;5013052;28;20051;-85
2021/03/14 07:49:49;;;;;;;2.92;2.22;;;6.00;98.70;;;;;;5012353;28;20053;-86
2021/03/14 07:52:23;;;;;;;2.38;2.28;;;6.00;99.00;;;;;;5014481;28;20038;-84
2021/03/14 07:55:03;;;;;;;2.63;2.42;;;6.10;98.90;;;;;;5007899;28;20053;-84
2021/03/14 07:57:30;;;;;;;2.10;2.00;;;6.20;98.80;;;;;;5014599;28;20051;-84
2021/03/14 07:59:56;;;;;;;2.20;2.00;;;6.30;98.30;;;;;;5014411;28;20092;-84
2021/03/14 08:02:22;;;;;;;2.08;1.98;;;6.20;97.60;;;;;;5016730;28;20047;-84
2021/03/14 08:04:58;;;;;;;3.03;2.35;;;6.20;97.70;;;;;;5019982;28;20905;-83
2021/03/14 08:07:33;;;;;;;3.88;2.30;;;6.20;97.40;;;;;;4996487;28;20045;-83
2021/03/14 08:10:06;;;;;;;3.78;2.15;;;6.20;98.30;;;;;;5025216;28;20039;-84
2021/03/14 08:12:42;;;;;;;2.42;2.22;;;6.40;98.40;;;;;;5018040;28;20890;-84
2021/03/14 08:15:22;;;;;;;2.20;2.10;;;6.60;97.30;;;;;;5018226;28;20153;-84
2021/03/14 08:17:49;;;;;;;2.40;2.20;;;6.80;96.40;;;;;;5002813;28;20046;-84
2021/03/14 08:20:28;;;;;;;2.08;1.98;;;6.80;95.70;;;;;;5012179;28;20142;-82
2021/03/14 08:22:54;;;;;;;2.45;2.30;;;7.00;96.40;;;;;;5011275;28;20039;-82
2021/03/14 08:25:36;;;;;;;2.42;2.28;;;7.50;96.10;;;;;;5010796;28;20050;-82
2021/03/14 08:28:22;;;;;;;1.90;1.80;;;8.30;95.00;;;;;;5010963;28;20039;-84
2021/03/14 08:30:49;;;;;;;2.00;1.90;;;8.90;92.80;;;;;;5000338;28;20058;-82
2021/03/14 08:33:18;;;;;;;2.50;2.40;;;9.10;91.30;;;;;;5010987;28;20102;-84
2021/03/14 08:35:48;;;;;;;1.77;1.70;;;9.60;91.20;;;;;;4990901;28;20051;-83
2021/03/14 08:38:29;;;;;;;2.42;2.22;;;10.60;90.00;;;;;;5008499;28;20142;-82
2021/03/14 08:41:17;;;;;;;2.88;2.55;;;11.20;84.10;;;;;;5010192;28;20531;-83
2021/03/14 08:43:44;;;;;;;2.13;2.03;;;11.70;74.80;;;;;;5010254;28;20083;-83
2021/03/14 08:46:10;;;;;;;2.08;1.98;;;14.10;75.70;;;;;;5008037;28;20054;-83
2021/03/14 08:48:36;;;;;;;2.15;2.05;;;15.00;58.00;;;;;;5008937;28;20103;-81
2021/03/14 08:51:04;;;;;;;3.67;2.03;;;14.30;55.60;;;;;;5008361;28;20814;-81
2021/03/14 08:53:30;;;;;;;2.55;2.35;;;13.60;57.50;;;;;;5007299;28;20055;-82
2021/03/14 08:55:56;;;;;;;1.90;1.80;;;12.90;58.30;;;;;;5005685;28;20530;-83
2021/03/14 08:58:22;;;;;;;2.47;2.28;;;12.30;59.20;;;;;;5004274;28;20046;-83
2021/03/14 09:01:13;;;;;;;2.65;2.45;;;11.90;59.60;;;;;;5007251;28;20941;-83
2021/03/14 09:03:43;;;;;;;1.92;1.80;;;13.40;56.90;;;;;;5008050;28;20035;-85
2021/03/14 09:06:26;;;;;;;1.92;1.85;;;15.90;51.70;;;;;;5007999;28;20126;-83
2021/03/14 09:09:00;;;;;;;1.80;1.70;;;17.10;47.80;;;;;;5009811;28;20074;-84
2021/03/14 09:11:45;;;;;;;2.35;2.25;;;17.30;45.30;;;;;;5009735;28;20483;-84
2021/03/14 09:14:27;;;;;;;2.10;1.88;;;16.00;46.70;;;;;;5009865;28;20912;-85
2021/03/14 09:16:59;;;;;;;1.90;1.80;;;14.20;49.20;;;;;;5010324;28;20055;-84
2021/03/14 09:19:39;;;;;;;2.20;2.10;;;12.70;52.20;;;;;;5019509;28;20063;-85
2021/03/14 09:22:08;;;;;;;2.93;2.20;;;11.30;55.20;;;;;;5016559;28;20077;-83
2021/03/14 09:24:37;;;;;;;2.58;2.08;;;10.70;57.80;;;;;;5015640;28;20306;-84
2021/03/14 09:27:23;;;;;;;1.80;1.70;;;10.20;59.80;;;;;;5012377;28;20046;-84
2021/03/14 09:30:18;;;;;;;1.80;1.70;;;10.50;60.40;;;;;;5011430;28;21201;-85
2021/03/14 09:32:46;;;;;;;1.88;1.77;;;9.70;63.00;;;;;;5007386;28;20054;-82
2021/03/14 09:35:26;;;;;;;1.70;1.67;;;9.20;64.10;;;;;;5008182;28;20062;-85
2021/03/14 09:37:54;;;;;;;2.13;2.00;;;9.40;63.90;;;;;;5022575;28;20046;-86
2021/03/14 09:40:25;;;;;;;1.90;1.80;;;11.10;61.30;;;;;;5010888;28;20079;-84
2021/03/14 09:43:03;;;;;;;2.25;2.00;;;12.40;55.90;;;;;;5009501;28;20046;-86
2021/03/14 09:45:30;;;;;;;2.13;2.03;;;12.60;54.90;;;;;;4989762;28;21175;-84
2021/03/14 09:48:00;;;;;;;2.20;2.10;;;11.80;55.10;;;;;;5008614;28;20094;-85
2021/03/14 09:50:27;;;;;;;2.10;2.00;;;11.10;57.30;;;;;;5012985;28;20554;-84
2021/03/14 09:52:58;;;;;;;1.98;1.88;;;10.30;58.50;;;;;;5004599;28;20266;-85
2021/03/14 09:55:27;;;;;;;;;;;10.80;58.90;;;;;;5007918;28;20042;-86
2021/03/14 09:57:53;;;;;;;2.08;1.90;;;10.90;57.30;;;;;;4987906;28;19932;-86
2021/03/14 10:00:24;;;;;;;1.60;1.60;;;10.00;58.40;;;;;;5009662;28;20066;-85
2021/03/14 10:02:50;;;;;;;2.50;2.30;;;9.90;58.80;;;;;;5009102;28;20092;-84
2021/03/14 10:05:16;;;;;;;2.05;1.95;;;9.80;59.60;;;;;;5003248;28;20058;-82
2021/03/14 10:07:42;;;;;;;2.17;1.98;;;11.10;58.10;;;;;;5005353;28;20047;-83
2021/03/14 10:10:12;;;;;;;2.15;1.95;;;13.10;53.60;;;;;;5006932;28;20039;-82
2021/03/14 10:12:39;;;;;;;1.90;1.80;;;14.90;49.40;;;;;;5006443;28;20053;-85
2021/03/14 10:15:06;;;;;;;4.18;2.63;;;16.60;46.00;;;;;;4993230;28;20097;-84
2021/03/14 10:17:37;;;;;;;1.80;1.70;;;17.60;45.20;;;;;;5010401;28;20049;-84
2021/03/14 10:20:05;;;;;;;2.22;2.13;;;17.60;43.00;;;;;;5003012;28;20086;-81
2021/03/14 10:22:31;;;;;;;2.47;1.92;;;16.70;44.00;;;;;;4999557;28;20043;-84
2021/03/14 10:24:57;;;;;;;2.13;1.92;;;18.30;41.60;;;;;;5003368;28;20082;-85
2021/03/14 10:27:24;;;;;;;2.50;2.15;;;20.20;40.60;;;;;;4988145;28;20046;-84
2021/03/14 10:30:01;;;;;;;2.45;2.33;;;20.40;36.70;;;;;;5005877;28;20173;-84
2021/03/14 10:32:28;;;;;;;2.97;2.22;;;19.80;36.20;;;;;;5006680;28;20050;-83
2021/03/14 10:35:01;;;;;;;2.28;2.00;;;16.70;40.10;;;;;;5009980;28;20047;-83
2021/03/14 10:37:29;;;;;;;2.40;2.20;;;15.60;42.00;;;;;;5022826;28;20055;-82
2021/03/14 10:40:00;;;;;;;2.38;1.85;;;14.50;43.80;;;;;;5021562;28;20039;-82
2021/03/14 10:42:36;;;;;;;1.92;1.83;;;12.30;46.80;;;;;;5024092;28;20050;-81
2021/03/14 10:45:09;;;;;;;3.33;1.83;;;12.00;47.30;;;;;;5023021;28;20113;-82
2021/03/14 10:47:36;;;;;;;2.20;1.85;;;11.30;49.50;;;;;;5025419;28;20070;-82
2021/03/14 10:50:18;;;;;;;2.22;1.90;;;11.20;50.60;;;;;;5022875;28;20031;-83
2021/03/14 10:52:45;;;;;;;2.10;2.00;;;10.70;50.70;;;;;;5011681;28;20097;-83
2021/03/14 10:55:34;;;;;;;2.00;1.80;;;10.00;51.90;;;;;;5005356;28;20042;-84
2021/03/14 10:58:09;;;;;;;2.30;2.10;;;9.50;53.80;;;;;;5009252;28;20053;-83
2021/03/14 11:00:36;;;;;;;1.70;1.58;;;9.40;55.10;;;;;;5012829;28;20058;-83
2021/03/14 11:03:11;;;;;;;2.00;1.80;;;9.30;56.10;;;;;;5008567;28;20543;-82
2021/03/14 11:05:38;;;;;;;2.10;1.90;;;9.20;55.30;;;;;;5009106;28;20047;-83
2021/03/14 11:08:04;;;;;;;2.00;1.90;;;9.30;56.20;;;;;;5008095;28;20078;-83
2021/03/14 11:10:30;;;;;;;3.30;2.20;;;9.10;56.70;;;;;;5008922;28;20035;-81
2021/03/14 11:12:56;;;;;;;2.40;2.20;;;8.90;57.90;;;;;;5010950;28;20073;-82
2021/03/14 11:15:33;;;;;;;2.83;1.73;;;9.10;56.90;;;;;;5005469;28;20097;-83
2021/03/14 11:18:04;;;;;;;2.10;1.85;;;9.20;56.60;;;;;;5005451;28;20038;-86
2021/03/14 11:20:31;;;;;;;1.65;1.55;;;9.40;57.00;;;;;;5000538;28;20043;-85
2021/03/14 11:22:59;;;;;;;2.03;1.92;;;9.40;56.30;;;;;;5010301;28;20162;-82
2021/03/14 11:25:25;;;;;;;1.92;1.80;;;9.40;55.60;;;;;;5010583;28;20039;-83
2021/03/14 11:27:52;;;;;;;2.15;2.03;;;9.30;55.70;;;;;;5005400;28;20129;-81
2021/03/14 11:30:26;;;;;;;1.73;1.63;;;9.50;56.60;;;;;;5006746;28;20125;-84
2021/03/14 11:32:52;;;;;;;2.10;1.95;;;9.60;56.40;;;;;;5006750;28;20078;-84
2021/03/14 11:35:18;;;;;;;1.90;1.80;;;9.50;57.30;;;;;;5009848;28;20046;-82
2021/03/14 11:37:44;;;;;;;2.05;1.60;;;9.50;56.90;;;;;;4989223;28;20078;-83
2021/03/14 11:40:10;;;;;;;2.25;2.10;;;9.50;57.90;;;;;;5006396;28;20046;-81
2021/03/14 11:42:37;;;;;;;1.85;1.75;;;9.30;57.40;;;;;;5007388;28;20041;-83
2021/03/14 11:45:05;;;;;;;2.17;1.88;;;9.30;58.20;;;;;;5014473;28;20102;-83
2021/03/14 11:47:31;;;;;;;2.35;2.25;;;9.30;58.80;;;;;;5011671;28;20043;-83
2021/03/14 11:49:57;;;;;;;2.10;1.90;;;9.20;57.20;;;;;;5014427;28;20043;-83
2021/03/14 11:52:23;;;;;;;2.42;1.80;;;9.30;58.30;;;;;;5013545;28;20070;-83
2021/03/14 11:54:48;;;;;;;2.15;2.05;;;9.50;57.70;;;;;;5016890;28;20106;-82
2021/03/14 11:57:14;;;;;;;2.60;2.40;;;9.60;57.70;;;;;;5013451;28;20111;-82
2021/03/14 11:59:40;;;;;;;2.40;2.10;;;9.90;58.10;;;;;;5013167;28;20046;-83
2021/03/14 12:02:06;;;;;;;2.30;2.10;;;9.80;57.10;;;;;;5008837;28;20059;-87
2021/03/14 12:04:32;;;;;;;2.63;2.42;;;9.80;56.80;;;;;;5006266;28;20078;-84
2021/03/14 12:06:58;;;;;;;2.10;1.90;;;10.40;56.00;;;;;;5015645;28;20043;-83
2021/03/14 12:09:24;;;;;;;3.42;2.45;;;10.60;54.70;;;;;;5013813;28;20046;-84
2021/03/14 12:11:50;;;;;;;2.08;1.88;;;10.50;55.40;;;;;;5015501;28;20093;-85
2021/03/14 12:14:15;;;;;;;2.55;2.35;;;11.10;54.80;;;;;;5008188;28;20376;-86
2021/03/14 12:16:41;;;;;;;2.30;2.00;;;11.60;53.90;;;;;;5004676;28;20072;-87
2021/03/14 12:19:07;;;;;;;1.98;1.88;;;13.70;50.00;;;;;;5007366;28;20157;-86
2021/03/14 12:21:32;;;;;;;2.25;2.10;;;14.20;46.60;;;;;;5011639;28;20070;-84
2021/03/14 12:23:59;;;;;;;2.05;1.95;;;14.80;45.90;;;;;;5005215;28;20043;-84
2021/03/14 12:26:25;;;;;;;2.15;2.05;;;14.80;45.50;;;;;;5000180;28;20043;-84
2021/03/14 12:28:51;;;;;;;2.55;2.35;;;14.90;43.50;;;;;;5005592;28;20062;-87
2021/03/14 12:31:17;;;;;;;2.45;1.92;;;14.20;45.40;;;;;;5017828;28;20882;-84
2021/03/14 12:33:44;;;;;;;2.60;1.92;;;13.20;46.30;;;;;;5020624;28;20073;-83
2021/03/14 12:36:11;;;;;;;2.40;2.20;;;12.50;46.00;;;;;;5019538;28;20023;-85
2021/03/14 12:38:37;;;;;;;2.08;1.98;;;12.20;49.00;;;;;;5022812;28;20042;-84
2021/03/14 12:41:02;;;;;;;2.40;2.28;;;10.80;51.20;;;;;;5020707;28;20046;-85
2021/03/14 12:43:28;;;;;;;2.30;2.20;;;10.50;52.50;;;;;;5021045;28;20050;-84
2021/03/14 12:45:54;;;;;;;2.55;2.35;;;10.30;53.20;;;;;;5019969;28;20047;-82
2021/03/14 12:48:20;;;;;;;2.80;2.65;;;10.40;53.80;;;;;;5011855;28;20035;-83
2021/03/14 12:50:46;;;;;;;2.33;2.22;;;11.00;53.30;;;;;;5012201;28;20669;-83
2021/03/14 12:53:12;;;;;;;2.38;2.28;;;12.30;51.00;;;;;;5019426;28;20086;-82
2021/03/14 12:55:38;;;;;;;3.10;2.80;;;13.40;47.20;;;;;;5020064;28;20038;-82
2021/03/14 12:58:04;;;;;;;2.50;2.30;;;13.70;46.60;;;;;;5019809;28;20102;-84
2021/03/14 13:00:30;;;;;;;2.15;2.05;;;13.90;46.60;;;;;;5012106;28;20054;-83
2021/03/14 13:02:56;;;;;;;2.08;1.98;;;14.00;47.10;;;;;;5011160;28;20043;-85
2021/03/14 13:05:24;;;;;;;2.45;2.10;;;14.50;45.80;;;;;;5008953;28;20053;-83
2021/03/14 13:07:50;;;;;;;2.00;1.90;;;14.30;44.70;;;;;;5006735;28;20042;-83
2021/03/14 13:10:15;;;;;;;2.08;1.98;;;13.40;47.50;;;;;;5004867;28;20871;-84
2021/03/14 13:12:41;;;;;;;2.42;2.28;;;12.60;48.00;;;;;;5006350;28;20054;-83
2021/03/14 13:15:08;;;;;;;3.65;2.13;;;12.40;48.70;;;;;;4989767;28;20053;-84
2021/03/14 13:17:35;;;;;;;2.60;2.10;;;12.50;48.70;;;;;;5007462;28;20043;-84
2021/03/14 13:20:02;;;;;;;2.00;1.90;;;12.60;49.80;;;;;;5002015;28;20046;-83
2021/03/14 13:22:27;;;;;;;2.22;2.13;;;12.30;49.30;;;;;;5004780;28;20043;-82
2021/03/14 13:24:53;;;;;;;2.28;2.17;;;12.90;47.90;;;;;;5009297;28;20082;-84
2021/03/14 13:27:19;;;;;;;2.05;1.95;;;13.90;47.60;;;;;;5009340;28;20376;-81
2021/03/14 13:29:46;;;;;;;2.22;2.13;;;14.60;46.40;;;;;;5008132;28;20043;-84
2021/03/14 13:32:14;;;;;;;2.13;1.90;;;14.50;45.70;;;;;;5009183;28;20078;-84
2021/03/14 13:34:41;;;;;;;2.15;2.05;;;14.90;45.70;;;;;;5010214;28;20085;-83
2021/03/14 13:37:08;;;;;;;3.58;2.70;;;15.30;44.60;;;;;;5010529;28;20039;-81
2021/03/14 13:39:34;;;;;;;2.25;2.15;;;15.30;45.00;;;;;;5010694;28;20039;-82
2021/03/14 13:42:00;;;;;;;2.17;2.08;;;14.90;44.80;;;;;;5010507;28;20070;-83
2021/03/14 13:44:26;;;;;;;2.00;1.90;;;13.80;46.70;;;;;;5009015;28;20180;-83
2021/03/14 13:46:52;;;;;;;2.20;2.10;;;13.10;49.00;;;;;;5009106;28;20078;-81
2021/03/14 13:49:18;;;;;;;2.00;1.90;;;11.70;56.00;;;;;;5010103;28;20047;-82
2021/03/14 13:51:43;;;;;;;2.10;2.00;;;10.20;62.70;;;;;;5010632;28;20074;-82
2021/03/14 13:54:09;;;;;;;2.08;1.92;;;9.40;68.20;;;;;;5009934;28;20047;-82
2021/03/14 13:56:35;;;;;;;2.25;2.15;;;8.90;71.90;;;;;;5008113;28;20039;-82
2021/03/14 13:59:00;;;;;;;2.55;2.38;;;8.60;75.90;;;;;;5009111;28;20046;-81
2021/03/14 14:01:26;;;;;;;2.53;2.42;;;8.30;79.40;;;;;;5009435;28;20054;-83
2021/03/14 14:03:52;;;;;;;3.53;2.60;;;8.40;80.40;;;;;;5007038;28;20057;-81
2021/03/14 14:06:18;;;;;;;3.55;2.78;;;8.50;83.20;;;;;;5006242;28;20130;-80
2021/03/14 14:08:44;;;;;;;3.30;3.10;;;8.50;84.30;;;;;;5001499;28;20057;-82
2021/03/14 14:11:11;;;;;;;2.10;2.00;;;8.70;82.60;;;;;;5009108;28;20050;-79
2021/03/14 14:13:37;;;;;;;2.88;2.40;;;8.80;82.80;;;;;;5004904;28;20450;-79
2021/03/14 14:16:03;;;;;;;3.28;2.00;;;8.90;83.50;;;;;;4990935;28;20047;-81
2021/03/14 14:18:29;;;;;;;2.38;2.17;;;8.80;84.30;;;;;;5008030;28;20043;-81
2021/03/14 14:20:56;;;;;;;2.40;2.30;;;8.80;84.80;;;;;;5004737;28;20110;-79
2021/03/14 14:23:22;;;;;;;2.55;2.45;;;8.70;85.70;;;;;;5004504;28;20037;-80
2021/03/14 14:25:48;;;;;;;2.10;2.00;;;8.70;85.70;;;;;;5003449;28;20046;-80
2021/03/14 14:28:15;;;;;;;2.60;2.40;;;8.70;86.60;;;;;;5007581;28;20098;-81
2021/03/14 14:30:41;;;;;;;2.92;2.10;;;8.50;87.20;;;;;;5006183;28;20931;-80
2021/03/14 14:33:07;;;;;;;2.50;2.30;;;8.40;86.70;;;;;;5004800;28;20051;-81
2021/03/14 14:35:36;;;;;;;2.22;2.00;;;8.40;87.00;;;;;;5005342;28;20043;-81
2021/03/14 14:38:01;;;;;;;2.10;2.00;;;8.20;86.70;;;;;;4986922;28;20045;-82
2021/03/14 14:40:27;;;;;;;2.55;2.00;;;8.10;87.30;;;;;;5002059;28;20890;-80
2021/03/14 14:42:53;;;;;;;2.28;2.17;;;8.10;89.20;;;;;;5006342;28;20057;-81
2021/03/14 14:45:19;;;;;;;2.40;2.22;;;7.90;89.70;;;;;;5001132;28;20699;-81
2021/03/14 14:47:46;;;;;;;2.20;2.10;;;7.60;89.50;;;;;;5005615;28;20114;-80
2021/03/14 14:50:12;;;;;;;2.30;2.20;;;7.50;90.60;;;;;;5005996;28;20054;-83
2021/03/14 14:52:39;;;;;;;2.15;1.88;;;7.10;92.30;;;;;;5002475;28;20087;-82
2021/03/14 14:55:06;;;;;;;1.95;1.85;;;6.90;93.50;;;;;;5001719;28;20050;-80
2021/03/14 14:57:32;;;;;;;2.15;2.05;;;6.30;96.80;;;;;;5003521;28;20526;-83
2021/03/14 14:59:58;;;;;;;2.85;1.90;;;6.20;98.40;;;;;;5006597;28;20103;-82
2021/03/14 15:02:23;;;;;;;3.35;2.25;;;6.40;99.80;;;;;;5003419;28;20079;-83
2021/03/14 15:04:49;;;;;;;2.22;2.03;;;6.60;99.50;;;;;;5002311;28;20406;-85
2021/03/14 15:07:15;;;;;;;2.15;2.00;;;6.80;98.60;;;;;;5003546;28;20054;-82
2021/03/14 15:09:41;;;;;;;3.63;2.40;;;6.90;98.50;;;;;;5005197;28;20049;-83
2021/03/14 15:12:07;;;;;;;2.05;1.85;;;7.00;97.50;;;;;;5006315;28;20046;-84
2021/03/14 15:14:33;;;;;;;2.08;1.90;;;7.10;97.40;;;;;;5005640;28;20058;-82
2021/03/14 15:16:59;;;;;;;2.38;2.03;;;7.00;97.40;;;;;;5009725;28;20042;-83
2021/03/14 15:19:24;;;;;;;2.42;2.30;;;6.70;98.70;;;;;;5004693;28;20049;-83
2021/03/14 15:21:51;;;;;;;2.08;1.98;;;6.40;98.30;;;;;;5006057;28;20101;-84
2021/03/14 15:24:16;;;;;;;2.40;2.30;;;6.30;99.50;;;;;;5008765;28;20062;-82
2021/03/14 15:26:42;;;;;;;2.10;2.00;;;6.20;99.90;;;;;;5012331;28;20053;-82
2021/03/14 15:29:08;;;;;;;2.35;2.00;;;6.00;99.90;;;;;;5013701;28;20109;-83
2021/03/14 15:31:34;;;;;;;3.17;3.00;;;6.10;99.90;;;;;;5003907;28;20051;-83
2021/03/14 15:33:59;;;;;;;2.78;2.20;;;6.00;99.90;;;;;;5003950;28;20043;-84
2021/03/14 15:36:25;;;;;;;2.13;1.92;;;5.90;99.90;;;;;;5009495;28;20069;-84
2021/03/14 15:38:51;;;;;;;2.28;2.10;;;5.80;99.90;;;;;;5007680;28;20059;-84
2021/03/14 15:41:16;;;;;;;2.20;2.10;;;5.80;99.90;;;;;;5006290;28;20050;-82
2021/03/14 15:43:44;;;;;;;2.28;2.08;;;5.70;99.90;;;;;;5004808;28;21708;-82
2021/03/14 15:46:09;;;;;;;3.45;1.92;;;5.70;99.90;;;;;;5004606;28;20058;-80
2021/03/14 15:48:35;;;;;;;2.15;2.05;;;5.70;99.90;;;;;;5003509;28;20050;-81
2021/03/14 15:51:02;;;;;;;2.05;1.95;;;5.60;99.90;;;;;;5002449;28;20051;-80
2021/03/14 15:53:28;;;;;;;2.00;1.90;;;5.60;99.90;;;;;;5003521;28;20750;-81
2021/03/14 15:55:53;;;;;;;2.10;2.00;;;5.50;99.90;;;;;;5005415;28;20054;-81
2021/03/14 15:58:19;;;;;;;2.38;2.00;;;5.40;99.90;;;;;;5007701;28;20051;-82
2021/03/14 16:00:45;;;;;;;2.22;2.00;;;5.30;99.90;;;;;;5008616;28;20078;-82
2021/03/14 16:03:10;;;;;;;2.53;2.42;;;5.30;99.90;;;;;;5008433;28;20050;-81
2021/03/14 16:05:36;;;;;;;2.47;2.28;;;5.30;99.90;;;;;;5007127;28;20150;-80
2021/03/14 16:08:02;;;;;;;2.88;2.20;;;5.40;99.90;;;;;;4990691;28;20064;-85
2021/03/14 16:10:29;;;;;;;2.15;2.05;;;5.30;99.90;;;;;;5009399;28;20510;-81
2021/03/14 16:12:54;;;;;;;3.38;2.78;;;5.30;99.90;;;;;;5009379;28;20113;-81
2021/03/14 16:15:20;;;;;;;3.75;2.55;;;5.30;99.90;;;;;;5011544;28;20047;-80
2021/03/14 16:17:46;;;;;;;2.00;1.90;;;5.20;99.90;;;;;;5009015;28;20049;-82
2021/03/14 16:20:12;;;;;;;3.60;2.63;;;5.10;99.90;;;;;;5010848;28;20174;-82
2021/03/14 16:22:38;;;;;;;3.63;3.33;;;5.10;99.90;;;;;;5006661;28;20047;-81
2021/03/14 16:25:05;;;;;;;5.00;4.53;;;5.00;99.90;;;;;;5009986;28;20065;-83
2021/03/14 16:27:31;;;;;;;3.00;2.80;;;4.90;99.90;;;;;;5009652;28;20054;-85
2021/03/14 16:29:57;;;;;;;2.17;2.08;;;4.90;99.90;;;;;;5010395;28;20051;-86
2021/03/14 16:32:22;;;;;;;2.65;2.42;;;5.00;99.90;;;;;;5010666;28;20047;-85
2021/03/14 16:34:48;;;;;;;2.40;2.03;;;5.00;99.90;;;;;;5002931;28;20064;-83
2021/03/14 16:37:19;;;;;;;2.38;2.22;;;5.00;99.90;;;;;;5010180;28;20425;-85
2021/03/14 16:39:45;;;;;;;2.70;2.50;;;5.10;99.90;;;;;;5004193;28;20078;-84
2021/03/14 16:42:14;;;;;;;3.22;2.25;;;5.10;99.90;;;;;;4996246;28;20061;-85
2021/03/14 16:44:40;;;;;;;2.63;2.50;;;5.20;99.90;;;;;;5010476;28;20926;-84
2021/03/14 16:47:06;;;;;;;3.30;3.00;;;5.30;99.90;;;;;;5009224;28;20151;-88
2021/03/14 16:49:31;;;;;;;3.33;2.63;;;5.40;99.90;;;;;;5008998;28;20054;-85
2021/03/14 16:51:57;;;;;;;3.75;3.35;;;5.50;99.90;;;;;;5010875;28;20066;-84
2021/03/14 16:54:23;;;;;;;2.75;2.55;;;5.50;99.90;;;;;;5010528;28;20074;-83
2021/03/14 16:56:51;;;;;;;2.45;2.35;;;5.50;99.90;;;;;;5009730;28;20051;-85
2021/03/14 16:59:16;;;;;;;2.70;2.53;;;5.50;99.90;;;;;;5016815;28;20050;-85
2021/03/14 17:01:42;;;;;;;2.72;2.53;;;5.60;99.90;;;;;;4994706;28;20122;-83
2021/03/14 17:04:08;;;;;;;3.13;2.92;;;5.70;99.90;;;;;;5020437;28;20042;-84
2021/03/14 17:06:34;;;;;;;2.75;2.55;;;5.70;99.90;;;;;;5024352;28;20043;-84
2021/03/14 17:09:05;;;;;;;1.98;1.88;;;5.80;99.90;;;;;;5023360;28;20057;-85
2021/03/14 17:11:31;;;;;;;2.42;2.30;;;5.80;99.90;;;;;;5020681;28;20062;-86
2021/03/14 17:13:57;;;;;;;1.90;1.80;;;5.90;99.90;;;;;;5025893;28;20061;-85
2021/03/14 17:16:23;;;;;;;1.98;1.88;;;;;;;;;;5016600;28;20103;-86
2021/03/14 17:18:49;;;;;;;1.75;1.65;;;5.90;99.90;;;;;;5014208;28;20083;-85
2021/03/14 17:21:15;;;;;;;2.20;2.10;;;6.00;99.90;;;;;;5029999;28;20075;-85
2021/03/14 17:23:40;;;;;;;1.77;1.67;;;5.90;99.90;;;;;;5031139;28;20046;-85
2021/03/14 17:26:07;;;;;;;2.10;1.90;;;5.90;99.90;;;;;;5023902;28;20041;-85
2021/03/14 17:28:34;;;;;;;2.00;1.90;;;5.90;99.90;;;;;;5022880;28;20046;-85
2021/03/14 17:31:01;;;;;;;1.88;1.77;;;6.00;99.90;;;;;;5015315;28;20043;-83
2021/03/14 17:33:27;;;;;;;2.05;1.98;;;6.10;99.90;;;;;;5022495;28;20047;-83
2021/03/14 17:35:53;;;;;;;1.95;1.85;;;6.10;99.90;;;;;;5021729;28;20054;-83
2021/03/14 17:38:18;;;;;;;2.55;2.33;;;6.10;99.90;;;;;;5023309;28;20047;-85
2021/03/14 17:40:44;;;;;;;2.03;1.92;;;6.20;99.90;;;;;;5021916;28;20186;-84
2021/03/14 17:43:10;;;;;;;2.25;2.15;;;6.10;99.90;;;;;;5022927;28;20051;-85
2021/03/14 17:45:36;;;;;;;2.10;2.00;;;6.20;99.90;;;;;;5007661;28;20039;-86
2021/03/14 17:48:03;;;;;;;2.30;2.10;;;6.30;99.90;;;;;;5007482;28;20039;-86
2021/03/14 17:50:29;;;;;;;2.15;2.05;;;6.30;99.70;;;;;;5023774;28;20046;-79
2021/03/14 17:52:56;;;;;;;2.40;2.20;;;6.30;99.70;;;;;;5023499;28;20047;-83
2021/03/14 17:55:22;;;;;;;3.53;2.75;;;6.40;99.90;;;;;;5021189;28;20102;-81
2021/03/14 17:57:49;;;;;;;2.20;2.10;;;6.40;99.70;;;;;;5018260;28;20043;-82
2021/03/14 18:00:20;;;;;;;2.75;2.47;;;6.40;99.00;;;;;;5020721;28;20098;-85